Time;durP1;ratioP1;P1;durP2;ratioP2;P2;SDS_P1;SDS_P2;PMS_P1;PMS_P2;Temp;Humidity;BMP_temperature;BMP_pressure;BME280_temperature;BME280_humidity;BME280_pressure;Samples;Min_cycle;Max_cycle;Signal;HPM_P1;HPM_P2
2023/01/17 00:00:13;;;;;;;5.70;1.17;;;2.10;99.90;;;;;;5085147;28;20040;-62
2023/01/17 00:02:38;;;;;;;4.00;0.73;;;4.10;99.90;;;;;;5103422;28;20447;-61
2023/01/17 00:10:44;;;;;;;3.53;0.60;;;1.60;99.90;;;;;;5030203;28;20125;-66
2023/01/17 00:13:09;;;;;;;3.42;0.80;;;4.10;99.90;;;;;;5100046;28;20043;-64
2023/01/17 00:15:36;;;;;;;7.88;1.50;;;2.70;99.90;;;;;;5103228;28;20719;-65
2023/01/17 00:18:02;;;;;;;7.78;1.85;;;3.40;99.90;;;;;;5065528;28;20076;-66
2023/01/17 00:26:14;;;;;;;5.60;1.17;;;4.30;99.90;;;;;;5099893;28;20051;-67
2023/01/17 01:35:52;;;;;;;3.35;0.70;;;1.80;99.90;;;;;;5100091;28;20055;-58
2023/01/17 01:38:20;;;;;;;9.60;0.85;;;2.60;99.90;;;;;;5099208;28;20043;-59
2023/01/17 01:40:49;;;;;;;3.47;1.00;;;2.10;99.90;;;;;;5100826;28;20129;-59
2023/01/17 01:43:18;;;;;;;4.20;1.48;;;3.20;99.90;;;;;;5098345;28;20028;-59
2023/01/17 01:45:50;;;;;;;6.25;1.05;;;2.80;99.90;;;;;;5083058;28;20052;-59
2023/01/17 01:48:34;;;;;;;11.68;1.70;;;3.10;99.90;;;;;;5098929;28;20070;-59
2023/01/17 01:51:04;;;;;;;5.93;0.95;;;2.30;99.90;;;;;;5099652;28;20073;-59
2023/01/17 01:53:34;;;;;;;5.82;1.02;;;2.00;99.90;;;;;;5099699;28;20080;-58
2023/01/17 01:56:00;;;;;;;7.72;1.10;;;2.60;99.90;;;;;;5077967;28;20080;-59
2023/01/17 01:58:30;;;;;;;9.07;1.00;;;2.90;99.90;;;;;;5062914;28;20060;-58
2023/01/17 02:00:57;;;;;;;8.05;1.73;;;2.10;99.90;;;;;;5078103;28;20051;-59
2023/01/17 02:03:28;;;;;;;6.65;1.40;;;2.20;99.90;;;;;;5080550;28;20090;-58
2023/01/17 02:05:54;;;;;;;6.10;0.93;;;2.70;99.90;;;;;;5080004;28;20547;-59
2023/01/17 02:08:22;;;;;;;10.55;2.85;;;3.00;99.90;;;;;;5078546;28;20036;-59
2023/01/17 02:10:49;;;;;;;8.77;1.40;;;3.00;99.90;;;;;;5080780;28;20056;-59
2023/01/17 02:13:18;;;;;;;7.38;1.10;;;3.00;99.90;;;;;;5077664;28;20040;-58
2023/01/17 02:16:08;;;;;;;6.88;1.50;;;2.60;99.90;;;;;;5080531;28;20045;-58
2023/01/17 02:19:25;;;;;;;7.03;1.40;;;2.90;99.90;;;;;;5061236;28;20053;-59
2023/01/17 02:22:00;;;;;;;10.13;1.40;;;2.50;99.90;;;;;;5022002;28;20074;-58
2023/01/17 02:24:47;;;;;;;7.38;1.52;;;2.60;99.90;;;;;;5062381;28;20041;-57
2023/01/17 02:27:34;;;;;;;14.60;2.15;;;2.70;99.90;;;;;;5079493;28;20036;-57
2023/01/17 02:30:31;;;;;;;9.15;1.45;;;2.80;99.90;;;;;;5077631;28;20059;-58
2023/01/17 02:33:03;;;;;;;10.45;1.00;;;2.70;99.90;;;;;;5080038;28;20049;-58
2023/01/17 02:35:45;;;;;;;8.05;1.38;;;2.70;99.90;;;;;;5078584;28;20037;-58
2023/01/17 02:38:11;;;;;;;6.55;1.10;;;2.70;99.90;;;;;;5078376;28;20515;-58
2023/01/17 02:40:39;;;;;;;10.52;1.52;;;3.00;99.90;;;;;;5080274;28;20052;-58
2023/01/17 02:43:10;;;;;;;8.38;1.42;;;2.60;99.90;;;;;;5077229;28;20079;-58
2023/01/17 02:45:36;;;;;;;12.45;3.28;;;2.60;99.90;;;;;;5080205;28;20044;-58
2023/01/17 02:48:06;;;;;;;11.27;2.05;;;3.00;99.90;;;;;;5077365;28;20040;-58
2023/01/17 02:50:56;;;;;;;8.30;1.20;;;2.90;99.90;;;;;;5079957;28;20092;-58
2023/01/17 02:53:50;;;;;;;8.35;1.52;;;2.60;99.90;;;;;;5083831;28;20522;-58
2023/01/17 02:56:28;;;;;;;6.30;1.42;;;2.50;99.90;;;;;;5063595;28;20052;-58
2023/01/17 02:59:21;;;;;;;5.47;1.25;;;2.50;99.90;;;;;;5084187;28;20064;-57
2023/01/17 03:01:57;;;;;;;8.00;0.98;;;2.50;99.90;;;;;;5065771;28;20051;-58
2023/01/17 03:04:31;;;;;;;6.18;0.95;;;2.40;99.90;;;;;;5046607;28;20051;-58
2023/01/17 03:07:05;;;;;;;6.43;0.98;;;2.20;99.90;;;;;;5084028;28;20104;-58
2023/01/17 03:09:32;;;;;;;5.55;1.13;;;2.30;99.90;;;;;;5063256;28;20041;-58
2023/01/17 03:11:58;;;;;;;7.30;1.10;;;2.50;99.90;;;;;;5083248;28;20439;-58
2023/01/17 03:14:24;;;;;;;9.68;1.95;;;2.30;99.90;;;;;;5064968;28;20049;-57
2023/01/17 03:16:50;;;;;;;7.22;1.15;;;2.30;99.90;;;;;;5081684;28;20044;-58
2023/01/17 03:19:15;;;;;;;7.65;1.20;;;2.30;99.90;;;;;;5083783;28;20047;-58
2023/01/17 03:21:41;;;;;;;7.55;1.63;;;2.60;99.90;;;;;;5080728;28;20045;-58
2023/01/17 03:24:07;;;;;;;9.32;1.30;;;2.30;99.90;;;;;;5083450;28;20036;-58
2023/01/17 03:26:32;;;;;;;9.43;1.83;;;2.60;99.90;;;;;;5080865;28;20045;-58
2023/01/17 03:28:58;;;;;;;10.43;1.35;;;2.30;99.90;;;;;;5083371;28;20044;-58
2023/01/17 03:31:24;;;;;;;8.35;1.33;;;2.20;99.90;;;;;;5064440;28;20096;-58
2023/01/17 03:33:49;;;;;;;7.15;1.13;;;2.20;99.90;;;;;;5081856;28;20516;-58
2023/01/17 03:36:15;;;;;;;10.38;1.27;;;2.50;99.90;;;;;;5083672;28;20036;-58
2023/01/17 03:38:41;;;;;;;3.90;0.80;;;2.40;99.90;;;;;;5080542;28;20041;-58
2023/01/17 03:41:07;;;;;;;6.78;1.10;;;2.30;99.90;;;;;;5083233;28;20049;-58
2023/01/17 03:43:32;;;;;;;5.53;1.98;;;2.30;99.90;;;;;;5080140;28;20058;-58
2023/01/17 03:46:16;;;;;;;7.50;1.10;;;2.50;99.90;;;;;;5065159;28;20080;-58
2023/01/17 03:48:41;;;;;;;7.85;1.83;;;2.50;99.90;;;;;;5082345;28;20075;-57
2023/01/17 03:51:07;;;;;;;8.50;0.98;;;2.30;99.90;;;;;;5081061;28;20055;-58
2023/01/17 03:53:33;;;;;;;8.30;1.20;;;2.40;99.90;;;;;;5084375;28;20043;-58
2023/01/17 03:55:59;;;;;;;5.93;1.05;;;2.40;99.90;;;;;;5100600;28;20044;-58
2023/01/17 03:58:24;;;;;;;4.95;1.02;;;2.40;99.90;;;;;;5103282;28;20051;-58
2023/01/17 04:00:50;;;;;;;5.22;0.88;;;2.40;99.90;;;;;;5082439;28;20473;-58
2023/01/17 04:03:16;;;;;;;10.43;1.33;;;2.50;99.90;;;;;;5102369;28;20494;-58
2023/01/17 04:05:41;;;;;;;8.05;1.13;;;2.60;99.90;;;;;;5102171;28;20391;-57
2023/01/17 04:08:07;;;;;;;8.80;1.58;;;2.40;99.90;;;;;;5101307;28;20423;-58
2023/01/17 04:10:33;;;;;;;5.80;0.88;;;2.50;99.90;;;;;;5103216;28;20058;-58
2023/01/17 04:12:58;;;;;;;6.97;1.20;;;2.40;99.90;;;;;;5064985;28;20044;-58
2023/01/17 04:15:24;;;;;;;8.15;1.08;;;2.50;99.90;;;;;;5103096;28;20156;-58
2023/01/17 04:17:50;;;;;;;8.27;0.95;;;2.50;99.90;;;;;;5100227;28;20040;-58
2023/01/17 04:20:27;;;;;;;5.43;0.75;;;2.50;99.90;;;;;;5103066;28;20093;-58
2023/01/17 04:22:53;;;;;;;7.32;1.23;;;2.60;99.90;;;;;;5083503;28;20472;-58
2023/01/17 04:25:18;;;;;;;9.35;1.17;;;2.50;99.90;;;;;;5101204;28;20052;-59
2023/01/17 04:27:44;;;;;;;9.70;1.30;;;2.50;99.90;;;;;;5103034;28;20416;-59
2023/01/17 04:30:10;;;;;;;8.98;1.02;;;2.60;99.90;;;;;;5099818;28;20122;-58
2023/01/17 04:32:36;;;;;;;8.85;1.02;;;2.40;99.90;;;;;;5102611;28;20079;-59
2023/01/17 04:35:03;;;;;;;6.05;0.85;;;2.40;99.90;;;;;;5099717;28;20047;-59
2023/01/17 04:37:29;;;;;;;6.22;1.08;;;2.50;99.90;;;;;;5102602;28;20056;-59
2023/01/17 04:39:54;;;;;;;6.95;1.00;;;2.50;99.90;;;;;;5101179;28;20073;-59
2023/01/17 04:42:20;;;;;;;9.30;1.02;;;2.50;99.90;;;;;;5100739;28;20044;-59
2023/01/17 04:44:46;;;;;;;6.95;1.35;;;2.40;99.90;;;;;;5084530;28;20054;-58
2023/01/17 04:47:11;;;;;;;9.55;1.80;;;2.50;99.90;;;;;;5081447;28;20089;-58
2023/01/17 04:49:37;;;;;;;3.83;0.95;;;2.40;99.90;;;;;;5102261;28;20048;-59
2023/01/17 04:52:03;;;;;;;6.20;1.40;;;2.30;99.90;;;;;;5099649;28;20047;-59
2023/01/17 04:54:28;;;;;;;5.80;0.98;;;2.20;99.90;;;;;;5092839;28;20048;-59
2023/01/17 04:56:54;;;;;;;11.55;1.55;;;2.30;99.90;;;;;;5080386;28;20044;-59
2023/01/17 04:59:20;;;;;;;10.50;1.20;;;2.30;99.90;;;;;;5062778;28;20048;-59
2023/01/17 05:01:47;;;;;;;7.60;0.90;;;2.20;99.90;;;;;;5081904;28;20041;-59
2023/01/17 05:04:13;;;;;;;7.22;1.20;;;2.20;99.90;;;;;;5078850;28;20044;-59
2023/01/17 05:06:39;;;;;;;9.50;1.73;;;2.20;99.90;;;;;;5081834;28;20084;-59
2023/01/17 05:09:05;;;;;;;4.28;0.80;;;2.20;99.90;;;;;;5044224;28;20055;-59
2023/01/17 05:11:31;;;;;;;10.60;2.15;;;2.20;99.90;;;;;;5081745;28;20138;-59
2023/01/17 05:13:57;;;;;;;8.13;1.05;;;2.20;99.90;;;;;;5079423;28;20048;-57
2023/01/17 05:16:23;;;;;;;8.50;0.93;;;2.10;99.90;;;;;;5079722;28;20041;-59
2023/01/17 05:18:52;;;;;;;7.88;2.38;;;2.00;99.90;;;;;;5081011;28;20048;-59
2023/01/17 05:21:19;;;;;;;10.10;1.15;;;2.10;99.90;;;;;;5060821;28;20045;-59
2023/01/17 05:23:45;;;;;;;5.43;0.80;;;1.90;99.90;;;;;;5081308;28;20056;-59
2023/01/17 05:26:10;;;;;;;5.53;0.70;;;2.00;99.90;;;;;;5060545;28;20090;-58
2023/01/17 05:28:36;;;;;;;5.15;0.70;;;1.80;99.90;;;;;;5081436;28;20047;-59
2023/01/17 05:31:02;;;;;;;4.18;0.98;;;1.80;99.90;;;;;;5079100;28;20041;-59
2023/01/17 05:33:27;;;;;;;4.32;0.70;;;1.60;99.90;;;;;;5080234;28;20045;-59
2023/01/17 05:35:53;;;;;;;3.42;0.80;;;1.50;99.90;;;;;;5080730;28;20056;-59
2023/01/17 05:38:19;;;;;;;10.35;1.00;;;1.50;99.90;;;;;;5078978;28;20047;-59
2023/01/17 05:40:45;;;;;;;6.15;1.20;;;1.40;99.90;;;;;;5081062;28;20045;-58
2023/01/17 05:43:10;;;;;;;5.22;1.25;;;1.50;99.90;;;;;;5078007;28;20044;-59
2023/01/17 05:45:36;;;;;;;4.78;0.90;;;1.50;99.90;;;;;;5081019;28;20048;-59
2023/01/17 05:48:03;;;;;;;4.43;0.90;;;1.40;99.90;;;;;;5078321;28;20033;-58
2023/01/17 05:50:32;;;;;;;7.10;1.00;;;1.40;99.90;;;;;;5046000;28;20245;-59
2023/01/17 05:53:00;;;;;;;9.90;1.00;;;1.40;99.90;;;;;;5080132;28;20094;-59
2023/01/17 05:55:27;;;;;;;6.57;1.77;;;1.20;99.90;;;;;;5096057;28;20070;-59
2023/01/17 05:57:54;;;;;;;8.70;2.50;;;1.40;99.90;;;;;;5101180;28;20047;-58
2023/01/17 06:00:20;;;;;;;10.23;3.15;;;1.20;99.90;;;;;;5098342;28;20043;-59
2023/01/17 06:02:46;;;;;;;8.35;3.15;;;1.20;99.90;;;;;;5100889;28;20408;-59
2023/01/17 06:05:13;;;;;;;5.95;1.80;;;1.30;99.90;;;;;;5098445;28;20044;-58
2023/01/17 06:07:41;;;;;;;8.90;3.30;;;1.10;99.90;;;;;;5100550;28;20105;-59
2023/01/17 06:10:09;;;;;;;4.75;1.10;;;1.20;99.90;;;;;;5100347;28;20040;-59
2023/01/17 06:12:35;;;;;;;5.15;0.88;;;1.00;99.90;;;;;;5098246;28;20130;-59
2023/01/17 06:15:01;;;;;;;3.90;0.80;;;1.20;99.90;;;;;;5100774;28;20036;-59
2023/01/17 06:17:27;;;;;;;7.18;0.90;;;1.00;99.90;;;;;;5098150;28;20059;-59
2023/01/17 06:19:52;;;;;;;3.90;1.35;;;1.10;99.90;;;;;;5096062;28;20044;-59
2023/01/17 06:22:18;;;;;;;10.38;3.10;;;0.90;99.90;;;;;;5076112;28;20220;-59
2023/01/17 06:24:44;;;;;;;9.85;0.90;;;0.90;99.90;;;;;;5096483;28;20039;-59
2023/01/17 06:27:09;;;;;;;6.60;0.90;;;1.10;99.90;;;;;;5095733;28;20054;-59
2023/01/17 06:29:35;;;;;;;7.88;1.38;;;1.00;99.90;;;;;;5094490;28;20055;-59
2023/01/17 06:32:01;;;;;;;6.43;1.45;;;1.00;99.90;;;;;;5096372;28;20113;-58
2023/01/17 06:34:27;;;;;;;3.85;0.85;;;1.00;99.90;;;;;;5093875;28;20036;-59
2023/01/17 06:36:53;;;;;;;5.40;0.80;;;1.00;99.90;;;;;;5096507;28;20051;-58
2023/01/17 06:39:19;;;;;;;5.57;0.90;;;1.00;99.90;;;;;;5093876;28;20105;-59
2023/01/17 06:41:44;;;;;;;7.25;1.35;;;1.00;99.90;;;;;;5096717;28;20040;-59
2023/01/17 06:44:10;;;;;;;4.50;0.75;;;1.10;99.90;;;;;;5077227;28;20040;-58
2023/01/17 06:46:36;;;;;;;4.22;1.20;;;0.90;99.90;;;;;;5094562;28;20078;-59
2023/01/17 06:49:01;;;;;;;7.47;1.17;;;1.00;99.90;;;;;;5096794;28;20400;-58
2023/01/17 06:51:27;;;;;;;9.95;1.67;;;0.90;99.90;;;;;;5075660;28;20419;-59
2023/01/17 06:53:53;;;;;;;8.57;3.05;;;0.90;99.90;;;;;;5058007;28;20040;-59
2023/01/17 06:56:19;;;;;;;10.80;2.53;;;1.00;99.90;;;;;;5073546;28;20044;-58
2023/01/17 06:58:51;;;;;;;6.80;1.60;;;0.90;99.90;;;;;;5076234;28;20567;-59
2023/01/17 07:01:17;;;;;;;4.35;0.95;;;1.10;99.90;;;;;;5074807;28;20059;-60
2023/01/17 07:03:43;;;;;;;5.85;1.33;;;0.90;99.90;;;;;;5074606;28;20037;-59
2023/01/17 07:06:09;;;;;;;2.25;0.70;;;1.00;99.90;;;;;;5076011;28;20138;-59
2023/01/17 07:08:35;;;;;;;3.35;0.90;;;0.90;99.90;;;;;;5073260;28;20044;-59
2023/01/17 07:11:06;;;;;;;1.83;0.70;;;0.80;99.90;;;;;;5058105;28;20055;-58
2023/01/17 07:13:36;;;;;;;6.70;1.30;;;0.90;99.90;;;;;;5072940;28;20075;-59
2023/01/17 07:16:03;;;;;;;2.58;0.95;;;0.90;99.90;;;;;;5076121;28;20545;-59
2023/01/17 07:18:30;;;;;;;4.45;1.30;;;0.80;99.90;;;;;;5056648;28;20052;-59
2023/01/17 07:20:55;;;;;;;8.93;2.05;;;0.80;99.90;;;;;;5074590;28;20040;-59
2023/01/17 07:23:22;;;;;;;7.43;2.25;;;0.80;99.90;;;;;;5076169;28;20048;-59
2023/01/17 07:25:52;;;;;;;6.28;1.83;;;0.90;99.90;;;;;;5073187;28;20047;-58
2023/01/17 07:28:18;;;;;;;6.43;1.80;;;0.90;99.90;;;;;;5082454;28;20045;-57
2023/01/17 07:30:44;;;;;;;4.45;0.75;;;0.90;99.90;;;;;;5064992;28;20039;-58
2023/01/17 07:33:10;;;;;;;1.52;0.80;;;0.90;99.90;;;;;;5085818;28;20056;-59
2023/01/17 07:35:36;;;;;;;3.47;1.30;;;0.90;99.90;;;;;;5065382;28;20053;-58
2023/01/17 07:38:02;;;;;;;5.30;1.00;;;0.90;99.90;;;;;;5066273;28;20108;-58
2023/01/17 07:40:28;;;;;;;2.72;0.70;;;1.00;99.90;;;;;;5088832;28;20305;-59
2023/01/17 07:43:00;;;;;;;10.07;1.20;;;1.00;99.90;;;;;;5084514;28;20502;-59
2023/01/17 07:45:26;;;;;;;3.45;0.80;;;1.00;99.90;;;;;;5088768;28;20045;-59
2023/01/17 07:47:52;;;;;;;3.67;0.85;;;1.00;99.90;;;;;;5086482;28;20044;-59
2023/01/17 07:50:17;;;;;;;5.25;1.00;;;1.10;99.90;;;;;;5084558;28;20771;-59
2023/01/17 07:52:48;;;;;;;6.38;0.93;;;1.00;99.90;;;;;;5086480;28;20359;-59
2023/01/17 07:55:14;;;;;;;3.17;0.90;;;1.10;99.90;;;;;;5068588;28;20059;-59
2023/01/17 07:57:40;;;;;;;4.53;0.85;;;1.00;99.90;;;;;;5079348;28;20044;-59
2023/01/17 08:00:06;;;;;;;7.22;1.15;;;0.90;99.90;;;;;;5076610;28;20101;-59
2023/01/17 08:02:32;;;;;;;8.20;1.27;;;0.90;99.90;;;;;;5079184;28;20101;-58
2023/01/17 08:04:58;;;;;;;5.13;0.80;;;0.90;99.90;;;;;;5076269;28;20593;-59
2023/01/17 08:07:23;;;;;;;5.35;1.10;;;0.90;99.90;;;;;;5077885;28;20060;-59
2023/01/17 08:09:49;;;;;;;4.57;0.98;;;0.90;99.90;;;;;;5077578;28;20105;-59
2023/01/17 08:12:15;;;;;;;5.10;1.00;;;0.80;99.90;;;;;;5076844;28;20040;-59
2023/01/17 08:14:41;;;;;;;4.95;0.88;;;0.90;99.90;;;;;;5079193;28;20048;-58
2023/01/17 08:17:10;;;;;;;5.53;1.00;;;0.90;99.90;;;;;;5092384;28;20047;-58
2023/01/17 08:19:36;;;;;;;7.40;1.10;;;0.80;99.90;;;;;;5098324;28;20040;-60
2023/01/17 08:22:02;;;;;;;3.65;1.00;;;1.00;99.90;;;;;;5095719;28;20656;-59
2023/01/17 08:24:28;;;;;;;5.85;1.02;;;0.90;99.90;;;;;;5098775;28;20036;-59
2023/01/17 08:26:55;;;;;;;6.85;2.05;;;1.00;99.90;;;;;;5097176;28;20043;-60
2023/01/17 08:29:21;;;;;;;3.03;0.90;;;1.10;99.90;;;;;;5079189;28;20048;-58
2023/01/17 08:31:46;;;;;;;3.35;0.60;;;1.20;99.90;;;;;;5098379;28;20063;-58
2023/01/17 08:34:15;;;;;;;4.68;1.73;;;1.00;99.90;;;;;;5095367;28;20135;-59
2023/01/17 08:36:46;;;;;;;6.00;0.80;;;1.10;99.90;;;;;;5097945;28;20052;-59
2023/01/17 08:39:13;;;;;;;6.55;1.25;;;1.20;99.90;;;;;;5096069;28;20044;-61
2023/01/17 08:41:39;;;;;;;6.90;0.80;;;1.20;99.90;;;;;;5098438;28;20044;-59
2023/01/17 08:44:05;;;;;;;4.25;0.88;;;1.30;99.90;;;;;;5096715;28;20074;-59
2023/01/17 08:46:31;;;;;;;9.02;1.10;;;1.30;99.90;;;;;;5097044;28;20035;-59
2023/01/17 08:48:58;;;;;;;4.97;0.82;;;1.40;99.90;;;;;;5080252;28;20040;-58
2023/01/17 08:51:26;;;;;;;6.13;0.93;;;1.50;99.90;;;;;;5077621;28;20047;-59
2023/01/17 08:53:53;;;;;;;8.02;1.30;;;1.60;99.90;;;;;;5093728;28;20044;-59
2023/01/17 08:56:19;;;;;;;7.50;1.60;;;1.50;99.90;;;;;;5075474;28;20068;-59
2023/01/17 08:58:44;;;;;;;6.63;1.02;;;1.60;99.90;;;;;;5060058;28;20037;-59
2023/01/17 09:01:10;;;;;;;5.22;1.10;;;1.70;99.90;;;;;;5076731;28;20513;-59
2023/01/17 09:03:36;;;;;;;8.20;1.45;;;1.60;99.90;;;;;;5058613;28;20096;-59
2023/01/17 09:06:13;;;;;;;8.48;1.60;;;1.80;99.90;;;;;;5088857;28;20078;-58
2023/01/17 09:08:39;;;;;;;7.57;1.10;;;1.80;99.90;;;;;;5095014;28;20048;-58
2023/01/17 09:11:08;;;;;;;3.20;0.90;;;1.80;99.90;;;;;;5098147;28;20191;-58
2023/01/17 09:13:34;;;;;;;6.82;1.20;;;1.90;99.90;;;;;;5084263;28;20669;-58
2023/01/17 09:16:00;;;;;;;5.53;1.10;;;2.00;99.90;;;;;;5086722;28;20040;-58
2023/01/17 09:18:26;;;;;;;11.52;1.40;;;2.10;99.90;;;;;;5081424;28;20056;-58
2023/01/17 09:20:54;;;;;;;5.95;1.20;;;2.10;99.90;;;;;;5075858;28;20048;-58
2023/01/17 09:23:25;;;;;;;4.57;1.25;;;2.10;99.90;;;;;;5077435;28;20040;-59
2023/01/17 09:25:58;;;;;;;6.82;1.10;;;2.20;99.90;;;;;;5074662;28;20122;-59
2023/01/17 09:28:26;;;;;;;3.50;1.17;;;2.30;99.90;;;;;;5077358;28;20048;-59
2023/01/17 09:30:52;;;;;;;6.75;1.75;;;2.40;99.90;;;;;;5074601;28;20040;-58
2023/01/17 09:33:18;;;;;;;4.32;0.82;;;2.30;99.90;;;;;;5076640;28;20051;-58
2023/01/17 09:35:45;;;;;;;5.38;0.90;;;2.40;99.90;;;;;;5087547;28;20048;-59
2023/01/17 09:38:12;;;;;;;1.77;0.85;;;2.50;99.90;;;;;;5067327;28;20051;-59
2023/01/17 09:40:43;;;;;;;1.05;0.60;;;2.50;99.90;;;;;;5086628;28;20047;-59
2023/01/17 09:43:22;;;;;;;0.52;0.50;;;2.50;99.90;;;;;;5082614;28;20036;-58
2023/01/17 09:45:48;;;;;;;2.53;0.77;;;2.60;99.90;;;;;;5086376;28;20036;-59
2023/01/17 09:48:26;;;;;;;1.35;0.77;;;2.60;99.90;;;;;;5086416;28;20159;-58
2023/01/17 09:51:18;;;;;;;4.18;1.38;;;2.60;99.90;;;;;;5085207;28;20123;-59
2023/01/17 09:53:44;;;;;;;2.22;0.73;;;2.60;99.90;;;;;;5080273;28;20511;-59
2023/01/17 09:56:37;;;;;;;1.90;0.57;;;3.10;99.90;;;;;;5094166;28;20100;-58
2023/01/17 09:59:26;;;;;;;0.68;0.40;;;2.60;99.90;;;;;;5091169;28;20081;-59
2023/01/17 10:02:27;;;;;;;0.65;0.40;;;2.60;99.90;;;;;;5097323;28;20051;-58
2023/01/17 10:04:56;;;;;;;0.75;0.40;;;2.60;99.90;;;;;;5074593;28;20063;-58
2023/01/17 10:07:48;;;;;;;0.60;0.40;;;2.60;99.90;;;;;;5076854;28;20057;-59
2023/01/17 10:10:39;;;;;;;5.85;0.90;;;2.50;99.90;;;;;;5081853;28;20047;-59
2023/01/17 10:13:17;;;;;;;0.98;0.50;;;2.50;99.90;;;;;;5083280;28;20096;-59
2023/01/17 10:16:01;;;;;;;0.73;0.50;;;2.40;99.90;;;;;;5086525;28;20051;-59
2023/01/17 10:18:46;;;;;;;0.70;0.50;;;2.20;99.90;;;;;;5085973;28;20040;-58
2023/01/17 10:21:24;;;;;;;2.28;0.60;;;1.70;99.90;;;;;;5084564;28;20072;-59
2023/01/17 10:24:15;;;;;;;1.38;0.60;;;1.50;99.90;;;;;;5084494;28;20043;-59
2023/01/17 10:26:42;;;;;;;3.05;0.70;;;1.40;99.90;;;;;;5074795;28;20048;-59
2023/01/17 10:29:17;;;;;;;4.43;0.65;;;1.60;99.90;;;;;;5083936;28;20062;-59
2023/01/17 10:31:55;;;;;;;1.52;0.50;;;1.40;99.90;;;;;;5090434;28;20059;-59
2023/01/17 10:34:28;;;;;;;3.15;0.77;;;1.60;99.90;;;;;;5093868;28;20215;-59
2023/01/17 10:37:23;;;;;;;0.68;0.60;;;1.50;99.90;;;;;;5097784;28;20822;-59
2023/01/17 10:39:52;;;;;;;4.57;1.10;;;1.80;99.90;;;;;;5097568;28;20047;-59
2023/01/17 10:42:27;;;;;;;6.15;1.08;;;1.90;99.90;;;;;;5098110;28;20044;-59
2023/01/17 10:45:14;;;;;;;2.58;0.80;;;2.10;99.90;;;;;;5100184;28;20048;-59
2023/01/17 10:47:45;;;;;;;3.00;0.77;;;2.30;99.90;;;;;;5097525;28;20755;-59
2023/01/17 10:50:12;;;;;;;2.78;0.90;;;2.60;99.90;;;;;;5081485;28;20052;-59
2023/01/17 10:52:55;;;;;;;3.22;1.00;;;2.90;99.90;;;;;;5099581;28;20036;-59
2023/01/17 10:55:39;;;;;;;5.72;2.25;;;2.70;99.90;;;;;;5080359;28;20052;-58
2023/01/17 10:58:10;;;;;;;4.75;0.90;;;2.90;99.90;;;;;;5079561;28;20043;-59
2023/01/17 11:00:44;;;;;;;4.43;0.77;;;3.00;99.90;;;;;;5079121;28;20028;-59
2023/01/17 11:03:15;;;;;;;6.88;0.82;;;3.10;99.90;;;;;;5090374;28;20076;-59
2023/01/17 11:05:42;;;;;;;4.65;0.77;;;3.10;99.90;;;;;;5070726;28;20086;-59
2023/01/17 11:08:13;;;;;;;3.60;0.77;;;3.20;99.90;;;;;;5086332;28;20027;-59
2023/01/17 11:10:52;;;;;;;2.35;0.73;;;3.10;99.90;;;;;;5088845;28;20091;-59
2023/01/17 11:13:36;;;;;;;4.88;0.80;;;3.20;99.90;;;;;;5082249;28;20044;-58
2023/01/17 11:16:05;;;;;;;2.22;0.70;;;3.30;99.90;;;;;;5093840;28;20040;-59
2023/01/17 11:18:35;;;;;;;6.30;0.82;;;3.30;99.90;;;;;;5093822;28;20559;-59
2023/01/17 11:21:13;;;;;;;2.25;0.70;;;3.40;99.90;;;;;;5086746;28;20041;-59
2023/01/17 11:23:42;;;;;;;2.92;0.88;;;3.50;99.90;;;;;;5083655;28;20051;-59
2023/01/17 11:26:11;;;;;;;6.00;0.90;;;3.70;99.90;;;;;;5085409;28;20063;-59
2023/01/17 11:28:39;;;;;;;5.25;0.85;;;3.60;99.90;;;;;;5092114;28;20080;-59
2023/01/17 11:31:14;;;;;;;5.25;1.08;;;3.70;99.90;;;;;;5091702;28;20032;-59
2023/01/17 11:34:04;;;;;;;3.72;0.90;;;3.80;99.90;;;;;;5081576;28;20075;-59
2023/01/17 11:36:30;;;;;;;5.18;1.92;;;3.80;99.90;;;;;;5083406;28;20045;-59
2023/01/17 11:39:05;;;;;;;4.53;0.90;;;3.80;99.90;;;;;;5062436;28;20076;-59
2023/01/17 11:41:39;;;;;;;4.22;0.90;;;3.90;99.90;;;;;;5083316;28;20028;-58
2023/01/17 11:44:23;;;;;;;4.25;1.02;;;4.00;99.90;;;;;;5082172;28;20044;-59
2023/01/17 11:47:12;;;;;;;6.85;2.22;;;4.00;99.90;;;;;;5080570;28;20072;-59
2023/01/17 11:49:39;;;;;;;9.05;1.10;;;4.10;99.90;;;;;;5082672;28;20044;-59
2023/01/17 11:52:31;;;;;;;5.60;1.00;;;4.20;99.90;;;;;;5080398;28;20040;-59
2023/01/17 11:54:57;;;;;;;4.10;1.00;;;4.20;99.90;;;;;;5095166;28;20032;-59
2023/01/17 11:57:26;;;;;;;4.80;1.00;;;4.20;99.90;;;;;;5085212;28;20050;-59
2023/01/17 12:00:23;;;;;;;3.80;0.95;;;4.30;99.90;;;;;;5100207;28;20550;-59
2023/01/17 12:03:18;;;;;;;2.47;0.80;;;4.30;99.90;;;;;;5103065;28;20102;-58
2023/01/17 12:06:25;;;;;;;4.10;1.00;;;4.20;99.90;;;;;;5102777;28;20036;-59
2023/01/17 12:09:21;;;;;;;5.00;1.35;;;4.10;99.90;;;;;;5086979;28;20396;-59
2023/01/17 12:14:59;;;;;;;3.25;0.80;;;4.10;99.90;;;;;;5102761;28;20055;-59
2023/01/17 12:18:04;;;;;;;6.95;1.60;;;4.00;99.90;;;;;;5099955;28;20067;-59
2023/01/17 12:20:57;;;;;;;3.88;1.02;;;4.10;99.90;;;;;;5102021;28;20047;-59
2023/01/17 12:23:44;;;;;;;2.53;0.82;;;4.20;99.90;;;;;;5102788;28;20040;-59
2023/01/17 12:26:27;;;;;;;4.63;1.00;;;4.20;99.90;;;;;;5099517;28;20055;-59
2023/01/17 12:29:23;;;;;;;2.97;0.90;;;4.30;99.90;;;;;;5102187;28;20327;-56
2023/01/17 12:32:06;;;;;;;3.65;0.80;;;4.40;99.90;;;;;;5080377;28;20052;-55
2023/01/17 12:34:45;;;;;;;5.95;1.38;;;4.50;99.90;;;;;;5099847;28;20056;-57
2023/01/17 12:37:28;;;;;;;6.75;2.28;;;4.50;99.90;;;;;;5102581;28;20676;-58
2023/01/17 12:40:12;;;;;;;4.57;0.98;;;4.70;99.90;;;;;;5101965;28;20070;-58
2023/01/17 12:42:49;;;;;;;4.03;0.70;;;4.80;99.90;;;;;;5099221;28;20048;-58
2023/01/17 12:45:30;;;;;;;5.63;0.90;;;4.90;99.90;;;;;;5084427;28;20385;-58
2023/01/17 12:48:03;;;;;;;3.87;0.60;;;5.10;99.90;;;;;;5100324;28;20040;-58
2023/01/17 12:50:53;;;;;;;3.28;0.82;;;5.10;99.90;;;;;;5101084;28;20294;-58
2023/01/17 12:53:45;;;;;;;7.15;1.27;;;5.10;99.90;;;;;;5102203;28;20082;-58
2023/01/17 12:56:33;;;;;;;4.72;1.08;;;5.10;99.90;;;;;;5079340;28;20037;-58
2023/01/17 12:59:14;;;;;;;2.97;0.90;;;5.20;99.90;;;;;;5081262;28;20483;-58
2023/01/17 13:01:56;;;;;;;4.72;0.90;;;5.20;99.90;;;;;;5081997;28;20048;-58
2023/01/17 13:04:24;;;;;;;4.20;0.73;;;5.10;99.90;;;;;;5079056;28;20400;-57
2023/01/17 13:06:56;;;;;;;6.70;0.93;;;5.00;99.90;;;;;;5081727;28;20094;-58
2023/01/17 13:09:22;;;;;;;4.78;0.90;;;4.90;99.90;;;;;;5079432;28;20693;-57
2023/01/17 13:12:03;;;;;;;1.65;0.60;;;5.10;99.90;;;;;;5080559;28;20131;-58
2023/01/17 13:14:29;;;;;;;4.53;1.02;;;5.00;99.90;;;;;;5081748;28;20040;-58
2023/01/17 13:16:59;;;;;;;3.85;0.80;;;5.10;99.90;;;;;;5060733;28;20048;-58
2023/01/17 13:19:44;;;;;;;4.18;0.80;;;5.00;99.90;;;;;;5081534;28;20127;-58
2023/01/17 13:22:16;;;;;;;4.05;0.85;;;5.00;99.90;;;;;;5078784;28;20040;-55
2023/01/17 13:25:07;;;;;;;3.83;0.75;;;4.90;99.90;;;;;;5062798;28;20036;-57
2023/01/17 13:28:01;;;;;;;5.00;0.95;;;4.80;99.90;;;;;;5081394;28;20044;-58
2023/01/17 13:30:45;;;;;;;4.88;0.90;;;4.90;99.90;;;;;;5083891;28;20499;-57
2023/01/17 13:33:25;;;;;;;7.05;1.10;;;4.90;99.90;;;;;;5100878;28;20063;-57
2023/01/17 13:36:08;;;;;;;2.70;0.80;;;4.90;99.90;;;;;;5101067;28;20044;-58
2023/01/17 13:39:06;;;;;;;3.78;1.23;;;4.90;99.90;;;;;;5098719;28;20040;-58
2023/01/17 13:41:46;;;;;;;4.68;1.40;;;4.80;99.90;;;;;;5101418;28;20058;-58
2023/01/17 13:44:23;;;;;;;4.07;1.00;;;4.70;99.90;;;;;;5100514;28;20601;-57
2023/01/17 13:47:06;;;;;;;5.03;1.00;;;4.60;99.90;;;;;;5098365;28;20057;-58
2023/01/17 13:49:41;;;;;;;7.63;1.58;;;4.70;99.90;;;;;;5082948;28;20903;-57
2023/01/17 13:52:19;;;;;;;3.10;0.80;;;4.80;99.90;;;;;;5098760;28;20095;-58
2023/01/17 13:54:53;;;;;;;5.85;1.10;;;4.90;99.90;;;;;;5088510;28;20091;-57
2023/01/17 13:57:22;;;;;;;4.97;2.67;;;4.70;99.90;;;;;;5080842;28;20070;-57
2023/01/17 13:59:48;;;;;;;4.50;0.77;;;4.50;99.90;;;;;;5077994;28;20063;-57
2023/01/17 14:02:32;;;;;;;6.63;1.65;;;4.60;99.90;;;;;;5080744;28;20614;-57
2023/01/17 14:05:22;;;;;;;5.70;0.75;;;4.50;99.90;;;;;;5078329;28;20052;-57
2023/01/17 14:08:21;;;;;;;3.65;0.70;;;4.40;99.90;;;;;;5079208;28;20468;-57
2023/01/17 14:10:53;;;;;;;3.92;1.05;;;4.50;99.90;;;;;;5025740;28;20433;-57
2023/01/17 14:13:33;;;;;;;3.17;0.90;;;4.30;99.90;;;;;;5077755;28;20040;-57
2023/01/17 14:16:00;;;;;;;4.45;0.80;;;4.30;99.90;;;;;;5080401;28;20041;-57
2023/01/17 14:18:32;;;;;;;2.45;0.80;;;4.20;99.90;;;;;;5080076;28;20041;-57
2023/01/17 14:21:18;;;;;;;5.00;1.08;;;4.20;99.90;;;;;;5078414;28;20499;-58
2023/01/17 14:23:55;;;;;;;5.85;1.10;;;4.10;99.90;;;;;;5080646;28;20068;-57
2023/01/17 14:26:32;;;;;;;2.63;0.93;;;4.10;99.90;;;;;;5078106;28;20097;-57
2023/01/17 14:29:38;;;;;;;3.60;0.88;;;4.20;99.90;;;;;;5079502;28;20052;-57
2023/01/17 14:32:08;;;;;;;4.10;1.90;;;4.20;99.90;;;;;;5065910;28;20108;-57
2023/01/17 14:34:34;;;;;;;5.32;1.13;;;4.20;99.90;;;;;;5077798;28;20055;-57
2023/01/17 14:37:26;;;;;;;2.08;0.70;;;4.10;99.90;;;;;;5080562;28;20067;-58
2023/01/17 14:39:51;;;;;;;3.15;0.80;;;4.00;99.90;;;;;;5066031;28;20071;-57
2023/01/17 14:42:22;;;;;;;2.70;0.80;;;4.00;99.90;;;;;;5078063;28;20032;-57